sensor_id;sensor_type;location;lat;lon;timestamp;P1;durP1;ratioP1;P2;durP2;ratioP2
38132;SDS011;23948;43.252;26.572;2023-05-07T00:02:04;8.40;;;5.32;;
38132;SDS011;23948;43.252;26.572;2023-05-07T00:04:29;9.35;;;5.68;;
38132;SDS011;23948;43.252;26.572;2023-05-07T00:07:00;9.38;;;5.97;;
38132;SDS011;23948;43.252;26.572;2023-05-07T00:09:26;10.27;;;6.55;;
38132;SDS011;23948;43.252;26.572;2023-05-07T00:11:51;10.93;;;5.40;;
38132;SDS011;23948;43.252;26.572;2023-05-07T00:14:16;11.65;;;6.35;;
38132;SDS011;23948;43.252;26.572;2023-05-07T00:16:42;9.00;;;5.68;;
38132;SDS011;23948;43.252;26.572;2023-05-07T00:19:07;12.45;;;6.10;;
38132;SDS011;23948;43.252;26.572;2023-05-07T00:21:32;10.65;;;6.18;;
38132;SDS011;23948;43.252;26.572;2023-05-07T00:23:57;13.52;;;7.00;;
38132;SDS011;23948;43.252;26.572;2023-05-07T00:26:23;10.35;;;5.90;;
38132;SDS011;23948;43.252;26.572;2023-05-07T00:28:48;11.40;;;6.00;;
38132;SDS011;23948;43.252;26.572;2023-05-07T00:31:13;10.45;;;5.18;;
38132;SDS011;23948;43.252;26.572;2023-05-07T00:33:39;9.82;;;5.70;;
38132;SDS011;23948;43.252;26.572;2023-05-07T00:36:04;13.73;;;6.20;;
38132;SDS011;23948;43.252;26.572;2023-05-07T00:38:29;11.82;;;5.60;;
38132;SDS011;23948;43.252;26.572;2023-05-07T00:40:55;12.82;;;5.28;;
38132;SDS011;23948;43.252;26.572;2023-05-07T00:43:20;8.23;;;4.97;;
38132;SDS011;23948;43.252;26.572;2023-05-07T00:45:45;8.27;;;5.00;;
38132;SDS011;23948;43.252;26.572;2023-05-07T00:48:11;8.23;;;4.82;;
38132;SDS011;23948;43.252;26.572;2023-05-07T00:50:36;7.45;;;5.00;;
38132;SDS011;23948;43.252;26.572;2023-05-07T00:53:01;10.43;;;5.68;;
38132;SDS011;23948;43.252;26.572;2023-05-07T00:55:27;10.50;;;5.63;;
38132;SDS011;23948;43.252;26.572;2023-05-07T00:57:53;11.40;;;5.70;;
38132;SDS011;23948;43.252;26.572;2023-05-07T01:00:18;8.40;;;4.97;;
38132;SDS011;23948;43.252;26.572;2023-05-07T01:02:44;9.00;;;5.10;;
38132;SDS011;23948;43.252;26.572;2023-05-07T01:05:12;11.05;;;5.15;;
38132;SDS011;23948;43.252;26.572;2023-05-07T01:07:38;8.50;;;4.65;;
38132;SDS011;23948;43.252;26.572;2023-05-07T01:10:05;9.75;;;4.60;;
38132;SDS011;23948;43.252;26.572;2023-05-07T01:12:31;7.63;;;4.00;;
38132;SDS011;23948;43.252;26.572;2023-05-07T01:14:57;8.38;;;5.07;;
38132;SDS011;23948;43.252;26.572;2023-05-07T01:17:23;8.43;;;4.55;;
38132;SDS011;23948;43.252;26.572;2023-05-07T01:19:48;8.85;;;5.07;;
38132;SDS011;23948;43.252;26.572;2023-05-07T01:22:14;7.50;;;4.65;;
38132;SDS011;23948;43.252;26.572;2023-05-07T01:24:41;8.45;;;4.90;;
38132;SDS011;23948;43.252;26.572;2023-05-07T01:27:06;7.40;;;4.82;;
38132;SDS011;23948;43.252;26.572;2023-05-07T01:29:31;7.63;;;4.85;;
38132;SDS011;23948;43.252;26.572;2023-05-07T01:31:57;7.88;;;4.65;;
38132;SDS011;23948;43.252;26.572;2023-05-07T01:34:24;7.78;;;4.85;;
38132;SDS011;23948;43.252;26.572;2023-05-07T01:36:50;11.15;;;5.82;;
38132;SDS011;23948;43.252;26.572;2023-05-07T01:39:17;10.23;;;5.50;;
38132;SDS011;23948;43.252;26.572;2023-05-07T01:41:42;11.13;;;4.90;;
38132;SDS011;23948;43.252;26.572;2023-05-07T01:44:08;15.48;;;5.65;;
38132;SDS011;23948;43.252;26.572;2023-05-07T01:46:35;9.13;;;5.00;;
38132;SDS011;23948;43.252;26.572;2023-05-07T01:49:00;9.13;;;5.07;;
38132;SDS011;23948;43.252;26.572;2023-05-07T01:51:26;9.63;;;4.72;;
38132;SDS011;23948;43.252;26.572;2023-05-07T01:53:52;10.13;;;4.90;;
38132;SDS011;23948;43.252;26.572;2023-05-07T01:56:17;7.57;;;4.38;;
38132;SDS011;23948;43.252;26.572;2023-05-07T01:58:44;7.50;;;4.28;;
38132;SDS011;23948;43.252;26.572;2023-05-07T02:01:09;7.22;;;4.50;;
38132;SDS011;23948;43.252;26.572;2023-05-07T02:03:35;8.70;;;4.45;;
38132;SDS011;23948;43.252;26.572;2023-05-07T02:06:00;7.43;;;4.25;;
38132;SDS011;23948;43.252;26.572;2023-05-07T02:08:26;9.55;;;4.70;;
38132;SDS011;23948;43.252;26.572;2023-05-07T02:10:51;8.45;;;4.18;;
38132;SDS011;23948;43.252;26.572;2023-05-07T02:13:18;7.68;;;4.57;;
38132;SDS011;23948;43.252;26.572;2023-05-07T02:15:44;7.57;;;4.75;;
38132;SDS011;23948;43.252;26.572;2023-05-07T02:18:14;10.48;;;4.65;;
38132;SDS011;23948;43.252;26.572;2023-05-07T02:20:39;8.27;;;4.50;;
38132;SDS011;23948;43.252;26.572;2023-05-07T02:23:04;9.20;;;4.88;;
38132;SDS011;23948;43.252;26.572;2023-05-07T02:25:30;10.20;;;4.80;;
38132;SDS011;23948;43.252;26.572;2023-05-07T02:27:55;8.95;;;5.15;;
38132;SDS011;23948;43.252;26.572;2023-05-07T02:30:20;12.27;;;4.40;;
38132;SDS011;23948;43.252;26.572;2023-05-07T02:32:46;9.65;;;5.05;;
38132;SDS011;23948;43.252;26.572;2023-05-07T02:35:11;8.38;;;4.60;;
38132;SDS011;23948;43.252;26.572;2023-05-07T02:37:36;13.20;;;5.75;;
38132;SDS011;23948;43.252;26.572;2023-05-07T02:40:02;9.20;;;4.25;;
38132;SDS011;23948;43.252;26.572;2023-05-07T02:42:29;10.48;;;5.40;;
38132;SDS011;23948;43.252;26.572;2023-05-07T02:44:54;9.00;;;5.07;;
38132;SDS011;23948;43.252;26.572;2023-05-07T02:47:19;7.45;;;4.70;;
38132;SDS011;23948;43.252;26.572;2023-05-07T02:49:45;10.40;;;5.13;;
38132;SDS011;23948;43.252;26.572;2023-05-07T02:52:10;10.55;;;4.20;;
38132;SDS011;23948;43.252;26.572;2023-05-07T02:54:36;8.25;;;4.80;;
38132;SDS011;23948;43.252;26.572;2023-05-07T02:57:01;11.70;;;4.57;;
38132;SDS011;23948;43.252;26.572;2023-05-07T02:59:27;8.95;;;4.38;;
38132;SDS011;23948;43.252;26.572;2023-05-07T03:01:52;9.50;;;4.82;;
38132;SDS011;23948;43.252;26.572;2023-05-07T03:04:17;9.20;;;4.50;;
38132;SDS011;23948;43.252;26.572;2023-05-07T03:06:43;10.98;;;4.72;;
38132;SDS011;23948;43.252;26.572;2023-05-07T03:09:08;8.70;;;4.82;;
38132;SDS011;23948;43.252;26.572;2023-05-07T03:11:33;8.77;;;4.32;;
38132;SDS011;23948;43.252;26.572;2023-05-07T03:14:00;10.55;;;5.20;;
38132;SDS011;23948;43.252;26.572;2023-05-07T03:16:26;9.43;;;4.63;;
38132;SDS011;23948;43.252;26.572;2023-05-07T03:18:51;10.13;;;5.40;;
38132;SDS011;23948;43.252;26.572;2023-05-07T03:21:17;9.75;;;4.88;;
38132;SDS011;23948;43.252;26.572;2023-05-07T03:23:42;7.15;;;4.20;;
38132;SDS011;23948;43.252;26.572;2023-05-07T03:26:07;12.15;;;5.20;;
38132;SDS011;23948;43.252;26.572;2023-05-07T03:28:32;9.55;;;5.10;;
38132;SDS011;23948;43.252;26.572;2023-05-07T03:30:58;11.95;;;4.85;;
38132;SDS011;23948;43.252;26.572;2023-05-07T03:33:23;8.65;;;4.70;;
38132;SDS011;23948;43.252;26.572;2023-05-07T03:35:48;10.43;;;4.85;;
38132;SDS011;23948;43.252;26.572;2023-05-07T03:38:13;9.43;;;4.90;;
38132;SDS011;23948;43.252;26.572;2023-05-07T03:40:39;9.05;;;5.18;;
38132;SDS011;23948;43.252;26.572;2023-05-07T03:43:04;10.88;;;4.95;;
38132;SDS011;23948;43.252;26.572;2023-05-07T03:45:30;9.18;;;4.90;;
38132;SDS011;23948;43.252;26.572;2023-05-07T03:47:55;7.97;;;4.53;;
38132;SDS011;23948;43.252;26.572;2023-05-07T03:50:20;8.20;;;5.07;;
38132;SDS011;23948;43.252;26.572;2023-05-07T03:52:45;10.10;;;4.72;;
38132;SDS011;23948;43.252;26.572;2023-05-07T03:55:11;13.32;;;5.13;;
38132;SDS011;23948;43.252;26.572;2023-05-07T03:57:36;11.40;;;4.95;;
38132;SDS011;23948;43.252;26.572;2023-05-07T04:00:01;11.15;;;4.93;;
38132;SDS011;23948;43.252;26.572;2023-05-07T04:02:29;11.77;;;4.93;;
38132;SDS011;23948;43.252;26.572;2023-05-07T04:04:54;10.45;;;5.47;;
38132;SDS011;23948;43.252;26.572;2023-05-07T04:07:19;9.52;;;5.40;;
38132;SDS011;23948;43.252;26.572;2023-05-07T04:09:44;13.32;;;6.45;;
38132;SDS011;23948;43.252;26.572;2023-05-07T04:12:10;11.98;;;7.78;;
38132;SDS011;23948;43.252;26.572;2023-05-07T04:14:35;15.60;;;6.80;;
38132;SDS011;23948;43.252;26.572;2023-05-07T04:17:00;11.77;;;5.70;;
38132;SDS011;23948;43.252;26.572;2023-05-07T04:19:26;10.75;;;5.90;;
38132;SDS011;23948;43.252;26.572;2023-05-07T04:21:51;14.70;;;5.65;;
38132;SDS011;23948;43.252;26.572;2023-05-07T04:24:16;12.23;;;5.53;;
38132;SDS011;23948;43.252;26.572;2023-05-07T04:26:42;9.27;;;5.20;;
38132;SDS011;23948;43.252;26.572;2023-05-07T04:29:07;9.63;;;5.45;;
38132;SDS011;23948;43.252;26.572;2023-05-07T04:31:32;10.10;;;4.45;;
38132;SDS011;23948;43.252;26.572;2023-05-07T04:33:58;8.73;;;5.38;;
38132;SDS011;23948;43.252;26.572;2023-05-07T04:36:23;9.90;;;5.03;;
38132;SDS011;23948;43.252;26.572;2023-05-07T04:38:52;10.27;;;5.30;;
38132;SDS011;23948;43.252;26.572;2023-05-07T04:41:17;7.68;;;4.97;;
38132;SDS011;23948;43.252;26.572;2023-05-07T04:43:43;7.32;;;4.60;;
38132;SDS011;23948;43.252;26.572;2023-05-07T04:46:08;7.45;;;4.57;;
38132;SDS011;23948;43.252;26.572;2023-05-07T04:48:33;12.05;;;4.57;;
38132;SDS011;23948;43.252;26.572;2023-05-07T04:50:58;12.20;;;5.00;;
38132;SDS011;23948;43.252;26.572;2023-05-07T04:53:24;7.75;;;4.43;;
38132;SDS011;23948;43.252;26.572;2023-05-07T04:55:54;9.32;;;4.85;;
38132;SDS011;23948;43.252;26.572;2023-05-07T04:58:20;7.35;;;4.43;;
38132;SDS011;23948;43.252;26.572;2023-05-07T05:00:45;9.15;;;4.80;;
38132;SDS011;23948;43.252;26.572;2023-05-07T05:03:11;18.65;;;4.70;;
38132;SDS011;23948;43.252;26.572;2023-05-07T05:05:36;8.60;;;4.72;;
38132;SDS011;23948;43.252;26.572;2023-05-07T05:08:02;12.50;;;4.75;;
38132;SDS011;23948;43.252;26.572;2023-05-07T05:10:27;8.10;;;5.25;;
38132;SDS011;23948;43.252;26.572;2023-05-07T05:12:52;10.73;;;4.65;;
38132;SDS011;23948;43.252;26.572;2023-05-07T05:15:18;8.48;;;4.30;;
38132;SDS011;23948;43.252;26.572;2023-05-07T05:17:43;9.32;;;4.53;;
38132;SDS011;23948;43.252;26.572;2023-05-07T05:20:09;17.13;;;9.00;;
38132;SDS011;23948;43.252;26.572;2023-05-07T05:22:37;10.88;;;5.80;;
38132;SDS011;23948;43.252;26.572;2023-05-07T05:25:02;12.02;;;5.47;;
38132;SDS011;23948;43.252;26.572;2023-05-07T05:27:28;7.32;;;3.90;;
38132;SDS011;23948;43.252;26.572;2023-05-07T05:29:53;8.25;;;4.28;;
38132;SDS011;23948;43.252;26.572;2023-05-07T05:32:19;7.78;;;4.03;;
38132;SDS011;23948;43.252;26.572;2023-05-07T05:34:44;9.93;;;4.35;;
38132;SDS011;23948;43.252;26.572;2023-05-07T05:37:10;7.13;;;4.40;;
38132;SDS011;23948;43.252;26.572;2023-05-07T05:39:35;8.43;;;4.18;;
38132;SDS011;23948;43.252;26.572;2023-05-07T05:42:01;9.40;;;4.13;;
38132;SDS011;23948;43.252;26.572;2023-05-07T05:44:26;7.93;;;3.78;;
38132;SDS011;23948;43.252;26.572;2023-05-07T05:46:51;9.10;;;3.53;;
38132;SDS011;23948;43.252;26.572;2023-05-07T05:49:17;7.55;;;3.55;;
38132;SDS011;23948;43.252;26.572;2023-05-07T05:51:42;8.45;;;3.70;;
38132;SDS011;23948;43.252;26.572;2023-05-07T05:54:07;8.73;;;3.88;;
38132;SDS011;23948;43.252;26.572;2023-05-07T05:56:33;8.45;;;3.30;;
38132;SDS011;23948;43.252;26.572;2023-05-07T05:58:58;9.57;;;3.80;;
38132;SDS011;23948;43.252;26.572;2023-05-07T06:01:24;10.07;;;5.05;;
38132;SDS011;23948;43.252;26.572;2023-05-07T06:03:50;7.35;;;2.97;;
38132;SDS011;23948;43.252;26.572;2023-05-07T06:06:15;7.97;;;3.25;;
38132;SDS011;23948;43.252;26.572;2023-05-07T06:08:40;5.55;;;2.90;;
38132;SDS011;23948;43.252;26.572;2023-05-07T06:11:06;6.13;;;3.03;;
38132;SDS011;23948;43.252;26.572;2023-05-07T06:13:31;5.88;;;2.83;;
38132;SDS011;23948;43.252;26.572;2023-05-07T06:15:56;7.32;;;3.17;;
38132;SDS011;23948;43.252;26.572;2023-05-07T06:18:22;9.45;;;3.38;;
38132;SDS011;23948;43.252;26.572;2023-05-07T06:20:47;7.72;;;3.80;;
38132;SDS011;23948;43.252;26.572;2023-05-07T06:23:13;8.35;;;2.80;;
38132;SDS011;23948;43.252;26.572;2023-05-07T06:25:39;10.32;;;4.00;;
38132;SDS011;23948;43.252;26.572;2023-05-07T06:28:04;6.95;;;3.03;;
38132;SDS011;23948;43.252;26.572;2023-05-07T06:30:29;6.35;;;3.05;;
38132;SDS011;23948;43.252;26.572;2023-05-07T06:32:54;8.00;;;2.80;;
38132;SDS011;23948;43.252;26.572;2023-05-07T06:35:20;8.60;;;3.65;;
38132;SDS011;23948;43.252;26.572;2023-05-07T06:37:45;10.80;;;3.25;;
38132;SDS011;23948;43.252;26.572;2023-05-07T06:40:10;9.55;;;2.70;;
38132;SDS011;23948;43.252;26.572;2023-05-07T06:42:36;11.10;;;4.07;;
38132;SDS011;23948;43.252;26.572;2023-05-07T06:45:02;9.50;;;4.70;;
38132;SDS011;23948;43.252;26.572;2023-05-07T06:47:28;9.43;;;3.17;;
38132;SDS011;23948;43.252;26.572;2023-05-07T06:49:53;5.57;;;2.92;;
38132;SDS011;23948;43.252;26.572;2023-05-07T06:52:18;9.50;;;2.67;;
38132;SDS011;23948;43.252;26.572;2023-05-07T06:54:43;6.40;;;2.90;;
38132;SDS011;23948;43.252;26.572;2023-05-07T06:57:09;8.18;;;3.42;;
38132;SDS011;23948;43.252;26.572;2023-05-07T06:59:34;5.35;;;2.28;;
38132;SDS011;23948;43.252;26.572;2023-05-07T07:01:59;5.53;;;2.13;;
38132;SDS011;23948;43.252;26.572;2023-05-07T07:04:25;4.97;;;2.60;;
38132;SDS011;23948;43.252;26.572;2023-05-07T07:06:54;11.98;;;6.57;;
38132;SDS011;23948;43.252;26.572;2023-05-07T07:09:19;13.13;;;6.18;;
38132;SDS011;23948;43.252;26.572;2023-05-07T07:11:44;7.57;;;2.83;;
38132;SDS011;23948;43.252;26.572;2023-05-07T07:14:10;7.53;;;3.67;;
38132;SDS011;23948;43.252;26.572;2023-05-07T07:16:35;8.18;;;3.85;;
38132;SDS011;23948;43.252;26.572;2023-05-07T07:19:00;9.68;;;3.65;;
38132;SDS011;23948;43.252;26.572;2023-05-07T07:21:26;9.65;;;4.00;;
38132;SDS011;23948;43.252;26.572;2023-05-07T07:23:51;7.80;;;3.08;;
38132;SDS011;23948;43.252;26.572;2023-05-07T07:26:17;6.40;;;2.58;;
38132;SDS011;23948;43.252;26.572;2023-05-07T07:28:43;6.05;;;2.28;;
38132;SDS011;23948;43.252;26.572;2023-05-07T07:31:08;7.93;;;2.55;;
38132;SDS011;23948;43.252;26.572;2023-05-07T07:33:34;6.03;;;2.60;;
38132;SDS011;23948;43.252;26.572;2023-05-07T07:35:59;7.55;;;2.63;;
38132;SDS011;23948;43.252;26.572;2023-05-07T07:38:24;5.55;;;2.00;;
38132;SDS011;23948;43.252;26.572;2023-05-07T07:40:50;6.18;;;2.20;;
38132;SDS011;23948;43.252;26.572;2023-05-07T07:43:15;4.38;;;2.10;;
38132;SDS011;23948;43.252;26.572;2023-05-07T07:45:40;6.78;;;2.80;;
38132;SDS011;23948;43.252;26.572;2023-05-07T07:48:05;5.38;;;2.10;;
38132;SDS011;23948;43.252;26.572;2023-05-07T07:50:31;4.50;;;1.95;;
38132;SDS011;23948;43.252;26.572;2023-05-07T07:52:56;5.27;;;2.10;;
38132;SDS011;23948;43.252;26.572;2023-05-07T07:55:22;8.25;;;4.68;;
38132;SDS011;23948;43.252;26.572;2023-05-07T07:57:48;6.10;;;2.40;;
38132;SDS011;23948;43.252;26.572;2023-05-07T08:00:14;7.60;;;2.80;;
38132;SDS011;23948;43.252;26.572;2023-05-07T08:02:39;5.15;;;2.38;;
38132;SDS011;23948;43.252;26.572;2023-05-07T08:05:05;5.73;;;1.83;;
38132;SDS011;23948;43.252;26.572;2023-05-07T08:07:30;5.30;;;1.98;;
38132;SDS011;23948;43.252;26.572;2023-05-07T08:09:55;4.72;;;2.20;;
38132;SDS011;23948;43.252;26.572;2023-05-07T08:12:21;5.23;;;2.10;;
38132;SDS011;23948;43.252;26.572;2023-05-07T08:14:46;6.20;;;2.20;;
38132;SDS011;23948;43.252;26.572;2023-05-07T08:17:11;6.22;;;2.60;;
38132;SDS011;23948;43.252;26.572;2023-05-07T08:19:37;4.40;;;1.70;;
38132;SDS011;23948;43.252;26.572;2023-05-07T08:22:03;8.75;;;2.47;;
38132;SDS011;23948;43.252;26.572;2023-05-07T08:24:29;8.27;;;2.17;;
38132;SDS011;23948;43.252;26.572;2023-05-07T08:26:55;4.60;;;1.90;;
38132;SDS011;23948;43.252;26.572;2023-05-07T08:29:20;3.90;;;1.67;;
38132;SDS011;23948;43.252;26.572;2023-05-07T08:31:46;3.72;;;2.05;;
38132;SDS011;23948;43.252;26.572;2023-05-07T08:34:12;4.07;;;1.92;;
38132;SDS011;23948;43.252;26.572;2023-05-07T08:36:37;5.22;;;1.95;;
38132;SDS011;23948;43.252;26.572;2023-05-07T08:39:03;7.70;;;3.83;;
38132;SDS011;23948;43.252;26.572;2023-05-07T08:41:28;4.93;;;3.08;;
38132;SDS011;23948;43.252;26.572;2023-05-07T08:43:54;8.82;;;5.53;;
38132;SDS011;23948;43.252;26.572;2023-05-07T08:46:22;5.65;;;2.20;;
38132;SDS011;23948;43.252;26.572;2023-05-07T08:48:48;3.97;;;1.90;;
38132;SDS011;23948;43.252;26.572;2023-05-07T08:51:16;7.53;;;2.90;;
38132;SDS011;23948;43.252;26.572;2023-05-07T08:53:42;8.75;;;4.18;;
38132;SDS011;23948;43.252;26.572;2023-05-07T08:56:10;6.88;;;2.03;;
38132;SDS011;23948;43.252;26.572;2023-05-07T08:58:36;3.67;;;2.00;;
38132;SDS011;23948;43.252;26.572;2023-05-07T09:01:22;6.57;;;2.10;;
38132;SDS011;23948;43.252;26.572;2023-05-07T09:03:47;5.35;;;1.65;;
38132;SDS011;23948;43.252;26.572;2023-05-07T09:06:13;5.47;;;1.83;;
38132;SDS011;23948;43.252;26.572;2023-05-07T09:08:38;6.07;;;2.00;;
38132;SDS011;23948;43.252;26.572;2023-05-07T09:11:03;7.10;;;2.30;;
38132;SDS011;23948;43.252;26.572;2023-05-07T09:13:29;4.53;;;1.80;;
38132;SDS011;23948;43.252;26.572;2023-05-07T09:15:54;4.97;;;2.30;;
38132;SDS011;23948;43.252;26.572;2023-05-07T09:18:19;6.43;;;2.22;;
38132;SDS011;23948;43.252;26.572;2023-05-07T09:20:45;4.13;;;2.00;;
38132;SDS011;23948;43.252;26.572;2023-05-07T09:23:10;3.65;;;1.88;;
38132;SDS011;23948;43.252;26.572;2023-05-07T09:25:35;4.95;;;1.65;;
38132;SDS011;23948;43.252;26.572;2023-05-07T09:28:01;4.03;;;2.13;;
38132;SDS011;23948;43.252;26.572;2023-05-07T09:30:30;4.22;;;1.98;;
38132;SDS011;23948;43.252;26.572;2023-05-07T09:32:56;6.35;;;1.98;;
38132;SDS011;23948;43.252;26.572;2023-05-07T09:35:22;4.85;;;2.00;;
38132;SDS011;23948;43.252;26.572;2023-05-07T09:37:49;4.88;;;1.98;;
38132;SDS011;23948;43.252;26.572;2023-05-07T09:40:24;5.60;;;1.90;;
38132;SDS011;23948;43.252;26.572;2023-05-07T09:42:50;6.43;;;2.00;;
38132;SDS011;23948;43.252;26.572;2023-05-07T09:45:16;5.50;;;2.03;;
38132;SDS011;23948;43.252;26.572;2023-05-07T09:47:42;5.05;;;2.30;;
38132;SDS011;23948;43.252;26.572;2023-05-07T09:50:09;9.05;;;3.30;;
38132;SDS011;23948;43.252;26.572;2023-05-07T09:52:35;6.10;;;2.08;;
38132;SDS011;23948;43.252;26.572;2023-05-07T09:55:00;5.80;;;1.90;;
38132;SDS011;23948;43.252;26.572;2023-05-07T09:57:27;4.68;;;1.92;;
38132;SDS011;23948;43.252;26.572;2023-05-07T09:59:52;5.55;;;1.88;;
38132;SDS011;23948;43.252;26.572;2023-05-07T10:02:18;4.80;;;2.00;;
38132;SDS011;23948;43.252;26.572;2023-05-07T10:04:45;7.60;;;2.00;;
38132;SDS011;23948;43.252;26.572;2023-05-07T10:07:11;5.82;;;1.85;;
38132;SDS011;23948;43.252;26.572;2023-05-07T10:09:36;4.18;;;1.90;;
38132;SDS011;23948;43.252;26.572;2023-05-07T10:12:04;5.30;;;1.90;;
38132;SDS011;23948;43.252;26.572;2023-05-07T10:14:29;5.82;;;1.95;;
38132;SDS011;23948;43.252;26.572;2023-05-07T10:16:55;4.70;;;2.10;;
38132;SDS011;23948;43.252;26.572;2023-05-07T10:19:21;4.18;;;2.00;;
38132;SDS011;23948;43.252;26.572;2023-05-07T10:21:51;4.60;;;1.90;;
38132;SDS011;23948;43.252;26.572;2023-05-07T10:24:25;6.47;;;2.08;;
38132;SDS011;23948;43.252;26.572;2023-05-07T10:26:51;5.07;;;2.10;;
38132;SDS011;23948;43.252;26.572;2023-05-07T10:34:23;7.53;;;2.20;;
38132;SDS011;23948;43.252;26.572;2023-05-07T10:36:49;5.13;;;2.08;;
38132;SDS011;23948;43.252;26.572;2023-05-07T10:39:15;6.20;;;1.88;;
38132;SDS011;23948;43.252;26.572;2023-05-07T10:41:40;6.10;;;2.08;;
38132;SDS011;23948;43.252;26.572;2023-05-07T10:44:06;5.30;;;1.90;;
38132;SDS011;23948;43.252;26.572;2023-05-07T10:46:31;4.50;;;1.83;;
38132;SDS011;23948;43.252;26.572;2023-05-07T10:51:29;3.55;;;1.75;;
38132;SDS011;23948;43.252;26.572;2023-05-07T10:56:35;5.90;;;1.88;;
38132;SDS011;23948;43.252;26.572;2023-05-07T11:04:24;3.85;;;2.15;;
38132;SDS011;23948;43.252;26.572;2023-05-07T11:12:15;5.15;;;2.10;;
38132;SDS011;23948;43.252;26.572;2023-05-07T11:17:07;3.35;;;1.70;;
38132;SDS011;23948;43.252;26.572;2023-05-07T11:19:51;6.28;;;2.15;;
38132;SDS011;23948;43.252;26.572;2023-05-07T11:25:00;4.97;;;1.90;;
38132;SDS011;23948;43.252;26.572;2023-05-07T11:27:25;4.00;;;1.92;;
38132;SDS011;23948;43.252;26.572;2023-05-07T11:29:51;5.13;;;2.10;;
38132;SDS011;23948;43.252;26.572;2023-05-07T11:32:22;5.03;;;2.10;;
38132;SDS011;23948;43.252;26.572;2023-05-07T11:34:47;6.28;;;2.20;;
38132;SDS011;23948;43.252;26.572;2023-05-07T11:37:16;6.80;;;2.05;;
38132;SDS011;23948;43.252;26.572;2023-05-07T11:39:42;3.53;;;1.95;;
38132;SDS011;23948;43.252;26.572;2023-05-07T11:42:07;4.13;;;1.85;;
38132;SDS011;23948;43.252;26.572;2023-05-07T11:44:49;5.45;;;2.20;;
38132;SDS011;23948;43.252;26.572;2023-05-07T11:47:18;3.65;;;2.13;;
38132;SDS011;23948;43.252;26.572;2023-05-07T11:49:45;5.55;;;2.00;;
38132;SDS011;23948;43.252;26.572;2023-05-07T11:52:12;6.43;;;2.30;;
38132;SDS011;23948;43.252;26.572;2023-05-07T11:54:37;4.13;;;2.00;;
38132;SDS011;23948;43.252;26.572;2023-05-07T11:57:03;4.75;;;2.00;;
38132;SDS011;23948;43.252;26.572;2023-05-07T11:59:28;3.95;;;1.90;;
38132;SDS011;23948;43.252;26.572;2023-05-07T12:01:56;8.32;;;2.08;;
38132;SDS011;23948;43.252;26.572;2023-05-07T12:04:22;7.00;;;2.00;;
38132;SDS011;23948;43.252;26.572;2023-05-07T12:06:47;4.32;;;2.10;;
38132;SDS011;23948;43.252;26.572;2023-05-07T12:09:13;4.45;;;2.30;;
38132;SDS011;23948;43.252;26.572;2023-05-07T12:11:38;6.05;;;2.03;;
38132;SDS011;23948;43.252;26.572;2023-05-07T12:14:05;6.68;;;2.03;;
38132;SDS011;23948;43.252;26.572;2023-05-07T12:16:30;6.60;;;2.20;;
38132;SDS011;23948;43.252;26.572;2023-05-07T12:18:56;8.68;;;1.90;;
38132;SDS011;23948;43.252;26.572;2023-05-07T12:21:23;3.33;;;1.70;;
38132;SDS011;23948;43.252;26.572;2023-05-07T12:23:50;5.00;;;1.80;;
38132;SDS011;23948;43.252;26.572;2023-05-07T12:26:15;6.18;;;1.83;;
38132;SDS011;23948;43.252;26.572;2023-05-07T12:28:40;5.10;;;1.90;;
38132;SDS011;23948;43.252;26.572;2023-05-07T12:31:06;4.55;;;1.73;;
38132;SDS011;23948;43.252;26.572;2023-05-07T12:33:32;5.13;;;1.90;;
38132;SDS011;23948;43.252;26.572;2023-05-07T12:35:58;5.50;;;2.15;;
38132;SDS011;23948;43.252;26.572;2023-05-07T12:38:23;4.47;;;1.88;;
38132;SDS011;23948;43.252;26.572;2023-05-07T12:40:54;7.93;;;2.15;;
38132;SDS011;23948;43.252;26.572;2023-05-07T12:43:20;6.25;;;2.00;;
38132;SDS011;23948;43.252;26.572;2023-05-07T12:45:49;4.00;;;1.92;;
38132;SDS011;23948;43.252;26.572;2023-05-07T12:50:40;5.90;;;1.87;;
38132;SDS011;23948;43.252;26.572;2023-05-07T12:53:06;5.15;;;2.30;;
38132;SDS011;23948;43.252;26.572;2023-05-07T12:55:39;4.78;;;2.00;;
38132;SDS011;23948;43.252;26.572;2023-05-07T12:58:05;3.92;;;1.80;;
38132;SDS011;23948;43.252;26.572;2023-05-07T13:00:36;4.90;;;1.80;;
38132;SDS011;23948;43.252;26.572;2023-05-07T13:03:02;3.45;;;2.03;;
38132;SDS011;23948;43.252;26.572;2023-05-07T13:05:27;6.15;;;1.92;;
38132;SDS011;23948;43.252;26.572;2023-05-07T13:07:53;5.63;;;2.00;;
38132;SDS011;23948;43.252;26.572;2023-05-07T13:10:19;3.45;;;1.90;;
38132;SDS011;23948;43.252;26.572;2023-05-07T13:12:45;4.13;;;1.95;;
38132;SDS011;23948;43.252;26.572;2023-05-07T13:15:10;4.60;;;1.63;;
38132;SDS011;23948;43.252;26.572;2023-05-07T13:17:35;4.78;;;1.60;;
38132;SDS011;23948;43.252;26.572;2023-05-07T13:20:00;6.57;;;1.80;;
38132;SDS011;23948;43.252;26.572;2023-05-07T13:22:26;5.57;;;2.50;;
38132;SDS011;23948;43.252;26.572;2023-05-07T13:24:51;4.78;;;2.10;;
38132;SDS011;23948;43.252;26.572;2023-05-07T13:27:16;3.90;;;2.03;;
38132;SDS011;23948;43.252;26.572;2023-05-07T13:29:41;4.93;;;2.17;;
38132;SDS011;23948;43.252;26.572;2023-05-07T13:32:07;5.07;;;2.20;;
38132;SDS011;23948;43.252;26.572;2023-05-07T13:34:32;5.68;;;2.20;;
38132;SDS011;23948;43.252;26.572;2023-05-07T13:36:57;4.47;;;2.20;;
38132;SDS011;23948;43.252;26.572;2023-05-07T13:39:23;7.82;;;3.08;;
38132;SDS011;23948;43.252;26.572;2023-05-07T13:41:48;3.70;;;1.98;;
38132;SDS011;23948;43.252;26.572;2023-05-07T13:44:13;4.60;;;1.93;;
38132;SDS011;23948;43.252;26.572;2023-05-07T13:46:38;4.55;;;1.88;;
38132;SDS011;23948;43.252;26.572;2023-05-07T13:49:04;4.45;;;1.80;;
38132;SDS011;23948;43.252;26.572;2023-05-07T13:51:29;5.53;;;2.20;;
38132;SDS011;23948;43.252;26.572;2023-05-07T13:53:55;4.45;;;1.90;;
38132;SDS011;23948;43.252;26.572;2023-05-07T13:56:20;4.93;;;2.10;;
38132;SDS011;23948;43.252;26.572;2023-05-07T13:58:46;5.60;;;2.15;;
38132;SDS011;23948;43.252;26.572;2023-05-07T14:01:11;2.90;;;1.98;;
38132;SDS011;23948;43.252;26.572;2023-05-07T14:03:36;5.65;;;1.92;;
38132;SDS011;23948;43.252;26.572;2023-05-07T14:06:04;4.18;;;1.85;;
38132;SDS011;23948;43.252;26.572;2023-05-07T14:08:31;7.43;;;2.35;;
38132;SDS011;23948;43.252;26.572;2023-05-07T14:10:56;6.80;;;2.10;;
38132;SDS011;23948;43.252;26.572;2023-05-07T14:13:21;8.32;;;2.10;;
38132;SDS011;23948;43.252;26.572;2023-05-07T14:15:46;3.30;;;1.90;;
38132;SDS011;23948;43.252;26.572;2023-05-07T14:18:14;4.15;;;1.70;;
38132;SDS011;23948;43.252;26.572;2023-05-07T14:20:39;3.75;;;1.70;;
38132;SDS011;23948;43.252;26.572;2023-05-07T14:30:45;6.13;;;2.10;;
38132;SDS011;23948;43.252;26.572;2023-05-07T14:33:10;5.53;;;1.85;;
38132;SDS011;23948;43.252;26.572;2023-05-07T14:35:35;4.07;;;2.08;;
38132;SDS011;23948;43.252;26.572;2023-05-07T14:38:01;4.65;;;1.80;;
38132;SDS011;23948;43.252;26.572;2023-05-07T14:40:26;3.45;;;1.83;;
38132;SDS011;23948;43.252;26.572;2023-05-07T14:42:51;3.80;;;1.85;;
38132;SDS011;23948;43.252;26.572;2023-05-07T14:45:17;6.03;;;2.20;;
38132;SDS011;23948;43.252;26.572;2023-05-07T14:47:42;6.13;;;2.08;;
38132;SDS011;23948;43.252;26.572;2023-05-07T14:50:07;6.45;;;1.90;;
38132;SDS011;23948;43.252;26.572;2023-05-07T14:52:33;6.65;;;3.47;;
38132;SDS011;23948;43.252;26.572;2023-05-07T14:54:58;3.83;;;1.70;;
38132;SDS011;23948;43.252;26.572;2023-05-07T14:57:23;5.60;;;1.98;;
38132;SDS011;23948;43.252;26.572;2023-05-07T14:59:49;3.65;;;1.90;;
38132;SDS011;23948;43.252;26.572;2023-05-07T15:02:14;5.30;;;2.00;;